Time;durP1;ratioP1;P1;durP2;ratioP2;P2;SDS_P1;SDS_P2;PMS_P1;PMS_P2;Temp;Humidity;BMP_temperature;BMP_pressure;BME280_temperature;BME280_humidity;BME280_pressure;Samples;Min_cycle;Max_cycle;Signal;HPM_P1;HPM_P2
2022/12/28 00:02:08;;;;;;;11.63;4.88;;;5.60;99.90;;;;;;4985370;28;21021;-76
2022/12/28 00:04:33;;;;;;;11.27;4.15;;;5.60;99.90;;;;;;4978478;28;20426;-77
2022/12/28 00:06:59;;;;;;;8.77;4.22;;;5.60;99.90;;;;;;4984001;28;20426;-76
2022/12/28 00:09:25;;;;;;;10.98;3.83;;;5.60;99.90;;;;;;4985398;28;21577;-77
2022/12/28 00:11:50;;;;;;;10.68;4.07;;;5.90;99.90;;;;;;4986917;28;20441;-76
2022/12/28 00:14:16;;;;;;;12.75;4.28;;;6.00;99.90;;;;;;4979500;28;20450;-76
2022/12/28 00:16:42;;;;;;;8.20;4.32;;;5.80;99.90;;;;;;4987206;28;20449;-78
2022/12/28 00:19:13;;;;;;;10.80;4.67;;;5.70;99.90;;;;;;4987790;28;20427;-76
2022/12/28 00:21:39;;;;;;;8.77;4.20;;;5.70;99.90;;;;;;4988804;28;20423;-76
2022/12/28 00:24:06;;;;;;;12.80;5.60;;;5.60;99.90;;;;;;4987156;28;20444;-81
2022/12/28 00:26:34;;;;;;;9.23;4.15;;;5.70;99.90;;;;;;4985244;28;20443;-76
2022/12/28 00:29:00;;;;;;;12.00;5.43;;;5.60;99.90;;;;;;4986001;28;20527;-75
2022/12/28 00:31:26;;;;;;;10.52;5.55;;;6.00;99.90;;;;;;4987008;28;20461;-76
2022/12/28 00:33:52;;;;;;;11.95;4.60;;;5.70;99.90;;;;;;4980167;28;20465;-78
2022/12/28 00:36:18;;;;;;;11.05;4.40;;;5.60;99.90;;;;;;4987942;28;20441;-77
2022/12/28 00:38:43;;;;;;;8.82;4.70;;;5.80;99.90;;;;;;4986619;28;20800;-76
2022/12/28 00:41:10;;;;;;;9.65;5.57;;;5.80;99.90;;;;;;4984348;28;20453;-78
2022/12/28 00:43:36;;;;;;;11.27;4.72;;;5.70;99.90;;;;;;4983517;28;20425;-77
2022/12/28 00:46:02;;;;;;;11.05;5.32;;;6.00;99.90;;;;;;4985156;28;20434;-76
2022/12/28 00:48:28;;;;;;;8.33;4.77;;;5.60;99.90;;;;;;4985382;28;20434;-75
2022/12/28 00:51:05;;;;;;;11.85;5.30;;;5.80;99.90;;;;;;4985663;28;20426;-76
2022/12/28 00:53:30;;;;;;;13.13;5.45;;;5.70;99.90;;;;;;4987325;28;20422;-77
2022/12/28 00:56:07;;;;;;;10.48;5.40;;;5.70;99.90;;;;;;4983872;28;20445;-78
2022/12/28 00:58:32;;;;;;;13.17;5.73;;;6.00;99.90;;;;;;4986374;28;20430;-76
2022/12/28 01:00:58;;;;;;;11.73;4.82;;;5.70;99.90;;;;;;4968367;28;20426;-77
2022/12/28 01:03:24;;;;;;;9.40;4.97;;;5.70;99.90;;;;;;4985505;28;20426;-78
2022/12/28 01:05:50;;;;;;;12.95;5.28;;;5.70;99.90;;;;;;4986467;28;20446;-77
2022/12/28 01:08:15;;;;;;;18.77;6.93;;;5.70;99.90;;;;;;4987220;28;20434;-77
2022/12/28 01:10:41;;;;;;;11.38;5.13;;;6.10;99.90;;;;;;4984419;28;20530;-80
2022/12/28 01:13:06;;;;;;;15.27;6.10;;;6.00;99.90;;;;;;4986176;28;20426;-77
2022/12/28 01:15:32;;;;;;;9.07;5.45;;;6.00;99.90;;;;;;4982043;28;20789;-77
2022/12/28 01:17:58;;;;;;;15.50;5.75;;;6.10;99.90;;;;;;4982067;28;20924;-77
2022/12/28 01:20:23;;;;;;;15.80;7.00;;;5.90;99.90;;;;;;4978707;28;20462;-78
2022/12/28 01:22:49;;;;;;;13.10;5.97;;;6.00;99.90;;;;;;4986876;28;20509;-77
2022/12/28 01:25:15;;;;;;;14.60;5.43;;;5.90;99.90;;;;;;4969128;28;20854;-76
2022/12/28 01:27:40;;;;;;;11.10;5.10;;;6.00;99.90;;;;;;4982714;28;20564;-77
2022/12/28 01:30:07;;;;;;;14.70;6.47;;;5.70;99.90;;;;;;4982935;28;20430;-78
2022/12/28 01:32:32;;;;;;;10.60;5.30;;;5.70;99.90;;;;;;4967858;28;20954;-78
2022/12/28 01:34:58;;;;;;;13.00;5.20;;;5.90;99.90;;;;;;4979756;28;20427;-78
2022/12/28 01:37:23;;;;;;;9.40;5.13;;;5.90;99.90;;;;;;4985107;28;20441;-76
2022/12/28 01:39:49;;;;;;;11.27;5.40;;;6.10;99.90;;;;;;4980845;28;20513;-76
2022/12/28 01:42:17;;;;;;;9.83;5.70;;;5.90;99.90;;;;;;4985370;28;20914;-78
2022/12/28 01:44:46;;;;;;;9.32;5.07;;;5.90;99.90;;;;;;4978618;28;20523;-76
2022/12/28 01:47:14;;;;;;;9.87;5.27;;;6.00;99.90;;;;;;4985624;28;21679;-77
2022/12/28 01:50:04;;;;;;;11.93;6.40;;;6.20;99.90;;;;;;4976711;28;20439;-76
2022/12/28 01:52:36;;;;;;;15.53;6.37;;;5.80;99.90;;;;;;4982914;28;20525;-76
2022/12/28 01:55:17;;;;;;;12.27;6.50;;;5.90;99.90;;;;;;4983812;28;20943;-76
2022/12/28 01:57:48;;;;;;;12.60;7.28;;;6.10;99.90;;;;;;4984881;28;20840;-76
2022/12/28 02:00:16;;;;;;;11.75;6.43;;;6.20;99.90;;;;;;4982168;28;20492;-76
2022/12/28 02:02:46;;;;;;;13.23;6.53;;;5.70;99.90;;;;;;4984586;28;20445;-77
2022/12/28 02:05:13;;;;;;;12.20;6.15;;;5.80;99.90;;;;;;4984698;28;20796;-76
2022/12/28 02:08:14;;;;;;;10.35;6.18;;;6.20;99.90;;;;;;4985163;28;20796;-76
2022/12/28 02:10:41;;;;;;;10.75;6.25;;;6.20;99.90;;;;;;4979815;28;20500;-76
2022/12/28 02:13:07;;;;;;;11.82;5.75;;;6.10;99.90;;;;;;4986362;28;20488;-76
2022/12/28 02:15:33;;;;;;;9.85;5.80;;;6.30;99.90;;;;;;4986653;28;20941;-76
2022/12/28 02:17:59;;;;;;;11.98;6.10;;;6.30;99.90;;;;;;4985116;28;20453;-77
2022/12/28 02:20:52;;;;;;;9.27;5.50;;;6.40;99.90;;;;;;4982790;28;21008;-76
2022/12/28 02:23:33;;;;;;;9.57;6.10;;;6.00;99.90;;;;;;4981448;28;20458;-77
2022/12/28 02:26:11;;;;;;;13.10;6.15;;;6.10;99.90;;;;;;4983723;28;20476;-76
2022/12/28 02:28:52;;;;;;;10.30;5.85;;;6.30;99.90;;;;;;4983186;28;20983;-77
2022/12/28 02:31:43;;;;;;;12.23;6.38;;;6.10;99.90;;;;;;4981942;28;20492;-76
2022/12/28 02:34:29;;;;;;;10.43;6.65;;;6.00;99.90;;;;;;4955021;28;20483;-76
2022/12/28 02:37:02;;;;;;;13.10;5.93;;;6.40;99.90;;;;;;4983438;28;20437;-78
2022/12/28 02:39:37;;;;;;;10.05;5.75;;;6.20;99.90;;;;;;4981004;28;20434;-77
2022/12/28 02:42:05;;;;;;;10.55;6.22;;;6.40;99.90;;;;;;4982951;28;20923;-78
2022/12/28 02:50:06;;;;;;;16.25;7.82;;;6.40;99.90;;;;;;4987034;28;20430;-77
2022/12/28 02:52:38;;;;;;;13.75;6.43;;;6.40;99.90;;;;;;4976900;28;20437;-76
2022/12/28 02:58:51;;;;;;;12.68;8.15;;;6.20;99.90;;;;;;4985669;28;20512;-79
2022/12/28 03:01:41;;;;;;;12.70;7.68;;;6.50;99.90;;;;;;4978622;28;20437;-79
2022/12/28 03:04:34;;;;;;;11.68;7.07;;;6.50;99.90;;;;;;4977864;28;20492;-76
2022/12/28 03:10:11;;;;;;;10.45;7.38;;;6.50;99.90;;;;;;4986454;28;20458;-78
2022/12/28 03:12:46;;;;;;;9.15;6.80;;;6.50;99.90;;;;;;4987086;28;20434;-77
2022/12/28 03:15:28;;;;;;;11.23;7.80;;;6.60;99.90;;;;;;4986151;28;20466;-78
2022/12/28 03:32:01;;;;;;;12.43;7.68;;;6.20;99.90;;;;;;4979951;28;20533;-78
2022/12/28 03:34:27;;;;;;;9.80;7.05;;;6.70;99.90;;;;;;4983446;28;20577;-77
2022/12/28 03:37:31;;;;;;;7.93;6.95;;;6.30;99.90;;;;;;4976514;28;20433;-77
2022/12/28 03:40:22;;;;;;;9.57;7.43;;;6.70;99.90;;;;;;4941725;28;20449;-79
2022/12/28 03:45:56;;;;;;;8.97;7.40;;;6.10;99.90;;;;;;4986113;28;20931;-78
2022/12/28 03:48:22;;;;;;;8.90;7.85;;;6.20;99.90;;;;;;4970656;28;20496;-77
2022/12/28 03:50:50;;;;;;;12.20;8.23;;;6.30;99.90;;;;;;4986321;28;20434;-76
2022/12/28 03:53:18;;;;;;;10.60;8.43;;;6.80;99.90;;;;;;4987824;28;20462;-76
2022/12/28 03:55:44;;;;;;;8.30;7.50;;;6.70;99.90;;;;;;4982799;28;20859;-79
2022/12/28 03:58:10;;;;;;;8.82;7.45;;;6.70;99.90;;;;;;4970160;28;20443;-77
2022/12/28 04:00:35;;;;;;;10.07;7.78;;;6.40;99.90;;;;;;4986623;28;20945;-79
2022/12/28 04:03:01;;;;;;;9.95;7.75;;;6.30;99.90;;;;;;4987961;28;20434;-75
2022/12/28 04:05:27;;;;;;;7.75;6.85;;;6.90;99.90;;;;;;4986347;28;20454;-76
2022/12/28 04:07:52;;;;;;;8.43;7.40;;;6.90;99.90;;;;;;4987353;28;20426;-76
2022/12/28 04:10:18;;;;;;;9.00;8.10;;;6.40;99.90;;;;;;4985540;28;20525;-77
2022/12/28 04:12:44;;;;;;;10.63;8.10;;;6.70;99.90;;;;;;4986266;28;20880;-77
2022/12/28 04:15:35;;;;;;;11.87;8.47;;;7.00;99.90;;;;;;4643697;23;20575;-71
2022/12/28 04:18:01;;;;;;;10.05;8.13;;;6.70;99.90;;;;;;4962593;28;20495;-71
2022/12/28 04:20:27;;;;;;;9.35;8.35;;;7.10;99.90;;;;;;4964794;28;20428;-71
2022/12/28 04:22:52;;;;;;;11.30;8.55;;;6.50;99.90;;;;;;4966230;28;20806;-71
2022/12/28 04:25:18;;;;;;;8.63;7.73;;;6.90;99.90;;;;;;4970053;28;20422;-71
2022/12/28 04:27:44;;;;;;;9.77;8.50;;;7.10;99.90;;;;;;4965014;28;20436;-71
2022/12/28 04:30:10;;;;;;;10.48;9.43;;;7.10;99.90;;;;;;4978871;28;20538;-71
2022/12/28 04:32:35;;;;;;;13.15;9.95;;;6.50;99.90;;;;;;4964072;28;20443;-71
2022/12/28 04:35:01;;;;;;;11.15;9.88;;;7.10;99.90;;;;;;4962859;28;20514;-71
2022/12/28 04:37:26;;;;;;;14.05;10.35;;;6.90;99.90;;;;;;4963024;28;20905;-70
2022/12/28 04:39:52;;;;;;;14.25;11.27;;;6.50;99.90;;;;;;4965505;28;20439;-72
2022/12/28 04:42:18;;;;;;;11.85;10.65;;;7.20;99.90;;;;;;4964809;28;20514;-71
2022/12/28 04:44:43;;;;;;;12.35;10.98;;;6.60;99.90;;;;;;4964183;28;20981;-71
2022/12/28 04:47:09;;;;;;;16.30;12.20;;;7.40;99.90;;;;;;4964076;28;20436;-70
2022/12/28 04:49:35;;;;;;;12.90;11.60;;;7.20;99.90;;;;;;4963981;28;20440;-71
2022/12/28 04:52:00;;;;;;;13.43;12.10;;;6.70;99.90;;;;;;4964891;28;20447;-70
2022/12/28 04:54:26;;;;;;;13.03;11.63;;;6.80;99.90;;;;;;4964188;28;20451;-70
2022/12/28 04:56:51;;;;;;;15.37;11.93;;;7.30;99.90;;;;;;4948027;28;21197;-71
2022/12/28 04:59:17;;;;;;;14.07;12.50;;;7.10;99.90;;;;;;4960678;28;20443;-71
2022/12/28 05:01:43;;;;;;;14.83;13.17;;;6.80;99.90;;;;;;4964224;28;20523;-71
2022/12/28 05:04:09;;;;;;;12.30;11.10;;;6.90;99.90;;;;;;4965135;28;20472;-71
2022/12/28 05:06:34;;;;;;;14.52;11.93;;;7.10;99.90;;;;;;4964577;28;20454;-74
2022/12/28 05:09:00;;;;;;;14.43;12.40;;;7.20;99.90;;;;;;4962114;28;20432;-71
2022/12/28 05:11:28;;;;;;;13.17;11.93;;;6.90;99.90;;;;;;4963699;28;20447;-72
2022/12/28 05:13:54;;;;;;;15.10;13.38;;;7.70;99.90;;;;;;4962879;28;20938;-71
2022/12/28 05:16:22;;;;;;;13.68;12.32;;;7.70;99.90;;;;;;4961206;28;20451;-73
2022/12/28 05:18:48;;;;;;;12.57;11.38;;;7.40;99.90;;;;;;4960412;28;20575;-73
2022/12/28 05:21:20;;;;;;;13.77;12.37;;;7.00;99.90;;;;;;4964663;28;20512;-73
2022/12/28 05:23:47;;;;;;;14.93;12.25;;;7.20;99.90;;;;;;4964840;28;20434;-71
2022/12/28 05:26:15;;;;;;;13.73;11.70;;;7.30;99.90;;;;;;4965283;28;20542;-71
2022/12/28 05:28:42;;;;;;;15.00;11.77;;;7.60;99.90;;;;;;4963040;28;20436;-71
2022/12/28 05:31:11;;;;;;;13.07;11.43;;;7.30;99.90;;;;;;4962378;28;20567;-72
2022/12/28 05:33:37;;;;;;;12.27;10.93;;;7.90;99.90;;;;;;4964694;28;20979;-71
2022/12/28 05:36:09;;;;;;;13.13;11.15;;;7.90;99.90;;;;;;4948513;28;20444;-72
2022/12/28 05:38:35;;;;;;;13.82;11.95;;;7.30;99.90;;;;;;4964687;28;20451;-71
2022/12/28 05:41:06;;;;;;;13.15;11.27;;;8.00;99.90;;;;;;4962703;28;21027;-71
2022/12/28 05:43:33;;;;;;;13.27;11.80;;;8.00;99.90;;;;;;4963010;28;20448;-69
2022/12/28 05:46:03;;;;;;;12.25;11.05;;;7.30;99.90;;;;;;4961813;28;20436;-70
2022/12/28 05:48:31;;;;;;;14.82;11.10;;;8.10;99.90;;;;;;4962748;28;20982;-71
2022/12/28 05:51:08;;;;;;;12.02;10.82;;;8.10;99.90;;;;;;4961785;28;21239;-71
2022/12/28 05:53:35;;;;;;;13.80;10.80;;;7.60;99.90;;;;;;4957059;28;20428;-70
2022/12/28 05:56:02;;;;;;;10.50;9.48;;;7.40;99.90;;;;;;4966474;28;20443;-70
2022/12/28 05:58:28;;;;;;;10.38;7.88;;;7.60;99.90;;;;;;4963377;28;20563;-72
2022/12/28 06:00:53;;;;;;;11.63;9.55;;;7.90;99.90;;;;;;4963302;28;20533;-72
2022/12/28 06:03:19;;;;;;;9.30;8.18;;;8.10;99.90;;;;;;4962156;28;20831;-70
2022/12/28 06:05:45;;;;;;;11.40;9.68;;;8.10;99.90;;;;;;4963746;28;20433;-72
2022/12/28 06:08:10;;;;;;;9.27;8.43;;;8.00;99.90;;;;;;4962740;28;20460;-70
2022/12/28 06:10:36;;;;;;;9.50;8.50;;;8.20;99.90;;;;;;4954765;28;20772;-71
2022/12/28 06:13:02;;;;;;;11.38;9.60;;;7.60;99.90;;;;;;4963240;28;20559;-71
2022/12/28 06:15:27;;;;;;;10.68;9.60;;;7.90;99.90;;;;;;4960917;28;20468;-70
2022/12/28 06:17:53;;;;;;;10.95;9.00;;;8.30;99.90;;;;;;4961009;28;20444;-70
2022/12/28 06:20:19;;;;;;;9.90;8.98;;;7.60;99.90;;;;;;4965411;28;20416;-72
2022/12/28 06:22:44;;;;;;;10.33;9.37;;;8.20;99.90;;;;;;4963640;28;20834;-71
2022/12/28 06:25:10;;;;;;;9.83;8.00;;;7.60;99.90;;;;;;4962408;28;20420;-71
2022/12/28 06:27:36;;;;;;;11.30;9.47;;;8.20;99.90;;;;;;4956512;28;20495;-71
2022/12/28 06:30:01;;;;;;;11.20;9.63;;;8.20;99.90;;;;;;4958582;28;20527;-71
2022/12/28 06:32:27;;;;;;;11.32;10.13;;;8.30;99.90;;;;;;4961016;28;20926;-71
2022/12/28 06:34:53;;;;;;;10.98;9.77;;;7.70;99.90;;;;;;4955218;28;20844;-73
2022/12/28 06:37:19;;;;;;;10.77;9.73;;;7.70;99.90;;;;;;4958790;28;20435;-71
2022/12/28 06:39:44;;;;;;;11.65;10.48;;;8.20;99.90;;;;;;4939949;28;20433;-71
2022/12/28 06:42:10;;;;;;;11.80;10.60;;;7.60;99.90;;;;;;4960243;28;20446;-70
2022/12/28 06:44:36;;;;;;;11.67;10.53;;;8.00;99.90;;;;;;4956947;28;20508;-72
2022/12/28 06:47:01;;;;;;;14.30;11.73;;;8.20;99.90;;;;;;4957767;28;20456;-70
2022/12/28 06:49:27;;;;;;;11.83;10.73;;;8.20;99.90;;;;;;4959769;28;20438;-71
2022/12/28 06:51:53;;;;;;;10.30;9.33;;;7.70;99.90;;;;;;4963009;28;20440;-71
2022/12/28 06:54:18;;;;;;;11.27;10.07;;;8.30;99.90;;;;;;4962505;28;20775;-71
2022/12/28 06:56:44;;;;;;;11.97;10.77;;;8.30;99.90;;;;;;4960961;28;20444;-71
2022/12/28 06:59:10;;;;;;;13.73;11.10;;;8.40;99.90;;;;;;4959917;28;20420;-71
2022/12/28 07:01:38;;;;;;;13.27;10.67;;;8.30;99.90;;;;;;4961506;28;20782;-71
2022/12/28 07:04:05;;;;;;;12.43;11.25;;;8.40;99.90;;;;;;4955366;28;20862;-71
2022/12/28 07:06:37;;;;;;;14.40;11.13;;;7.90;99.90;;;;;;4956899;28;20443;-71
2022/12/28 07:09:06;;;;;;;13.18;10.70;;;8.20;99.90;;;;;;4961852;28;20431;-71
2022/12/28 07:11:32;;;;;;;12.30;10.40;;;8.50;99.90;;;;;;4963722;28;20447;-71
2022/12/28 07:13:58;;;;;;;12.82;11.20;;;8.10;99.90;;;;;;4945929;28;20830;-71
2022/12/28 07:16:25;;;;;;;12.70;10.90;;;8.40;99.90;;;;;;4956792;28;20432;-71
2022/12/28 07:18:51;;;;;;;13.63;10.23;;;7.90;99.90;;;;;;4962198;28;21027;-71
2022/12/28 07:21:25;;;;;;;13.98;10.80;;;8.00;99.90;;;;;;4960811;28;20512;-71
2022/12/28 07:23:52;;;;;;;14.82;10.80;;;8.20;99.90;;;;;;4960712;28;21039;-71
2022/12/28 07:26:20;;;;;;;13.00;9.23;;;8.00;99.90;;;;;;4957685;28;20435;-72
2022/12/28 07:28:47;;;;;;;12.48;9.88;;;8.60;99.90;;;;;;4960552;28;20502;-72
2022/12/28 07:31:15;;;;;;;13.13;9.65;;;8.10;99.90;;;;;;4962410;28;20448;-74
2022/12/28 07:33:42;;;;;;;13.10;9.30;;;8.60;99.90;;;;;;4957919;28;20774;-71
2022/12/28 07:36:10;;;;;;;11.43;9.10;;;8.70;99.90;;;;;;4962135;28;20436;-71
2022/12/28 07:38:36;;;;;;;10.75;9.15;;;8.20;99.90;;;;;;4964865;28;20435;-71
2022/12/28 07:41:13;;;;;;;14.68;9.23;;;8.10;99.90;;;;;;4964414;28;20435;-72
2022/12/28 07:43:39;;;;;;;14.07;8.60;;;8.40;99.90;;;;;;4965299;28;20449;-71
2022/12/28 07:46:10;;;;;;;12.23;9.25;;;8.10;99.90;;;;;;4961207;28;20854;-72
2022/12/28 07:48:37;;;;;;;13.63;8.90;;;8.40;99.90;;;;;;4965658;28;20428;-70
2022/12/28 07:51:14;;;;;;;9.98;8.63;;;8.10;99.90;;;;;;4967216;28;20842;-71
2022/12/28 07:53:42;;;;;;;11.85;8.85;;;8.30;99.90;;;;;;4956052;28;20558;-71
2022/12/28 07:56:08;;;;;;;10.87;9.03;;;8.20;99.90;;;;;;4963206;28;20798;-73
2022/12/28 07:58:34;;;;;;;10.63;9.13;;;8.20;99.90;;;;;;4965890;28;20970;-71
2022/12/28 08:01:09;;;;;;;11.10;9.87;;;8.60;99.90;;;;;;4964498;28;20436;-72
2022/12/28 08:03:35;;;;;;;12.17;10.77;;;8.50;99.90;;;;;;4967225;28;20427;-72
2022/12/28 08:06:08;;;;;;;11.45;10.40;;;8.20;99.90;;;;;;4967237;28;21193;-72
2022/12/28 08:08:40;;;;;;;13.35;10.50;;;8.20;99.90;;;;;;4965480;28;20781;-71
2022/12/28 08:11:11;;;;;;;11.68;10.45;;;8.20;99.90;;;;;;4964213;28;20515;-73
2022/12/28 08:13:39;;;;;;;11.80;10.48;;;8.20;99.90;;;;;;4964236;28;20434;-71
2022/12/28 08:16:05;;;;;;;12.93;10.20;;;8.70;99.90;;;;;;4964081;28;20427;-71
2022/12/28 08:18:32;;;;;;;9.63;8.73;;;8.20;99.90;;;;;;4963492;28;20545;-72
2022/12/28 08:21:12;;;;;;;10.40;9.33;;;8.40;99.90;;;;;;4964439;28;20512;-71
2022/12/28 08:23:38;;;;;;;12.18;8.32;;;8.30;99.90;;;;;;4966560;28;20762;-72
2022/12/28 08:26:26;;;;;;;9.77;8.70;;;8.30;99.90;;;;;;4966478;28;20511;-71
2022/12/28 08:28:54;;;;;;;8.87;7.87;;;8.80;99.90;;;;;;4964346;28;20831;-71
2022/12/28 08:31:23;;;;;;;8.23;7.53;;;8.40;99.90;;;;;;4961963;28;20448;-71
2022/12/28 08:33:49;;;;;;;8.70;7.90;;;8.30;99.90;;;;;;4965540;28;20945;-71
2022/12/28 08:36:15;;;;;;;8.80;7.40;;;8.30;99.90;;;;;;4967716;28;20420;-70
2022/12/28 08:38:43;;;;;;;7.45;6.70;;;8.80;99.90;;;;;;4975885;28;20824;-71
2022/12/28 08:41:12;;;;;;;7.15;6.45;;;8.70;99.90;;;;;;4972014;28;20428;-72
2022/12/28 08:43:38;;;;;;;7.50;6.82;;;8.60;99.90;;;;;;4963792;28;21222;-72
2022/12/28 08:46:06;;;;;;;6.80;6.20;;;8.30;99.90;;;;;;4960760;28;20428;-71
2022/12/28 08:48:32;;;;;;;5.80;5.30;;;8.70;99.90;;;;;;4966776;28;20511;-71
2022/12/28 08:51:06;;;;;;;4.85;4.35;;;8.40;99.90;;;;;;4967177;28;20427;-72
2022/12/28 08:53:32;;;;;;;4.80;4.40;;;8.80;99.90;;;;;;4965423;28;20499;-71
2022/12/28 08:56:11;;;;;;;4.50;4.10;;;8.90;99.90;;;;;;4965631;28;20491;-71
2022/12/28 08:58:38;;;;;;;5.03;4.35;;;8.90;99.90;;;;;;4963983;28;20417;-71
2022/12/28 09:01:07;;;;;;;4.93;4.50;;;8.40;99.90;;;;;;4961939;28;20424;-73
2022/12/28 09:03:35;;;;;;;4.50;4.10;;;8.80;99.90;;;;;;4964125;28;20463;-71
2022/12/28 09:06:03;;;;;;;4.75;4.25;;;8.40;99.90;;;;;;4964521;28;21066;-71
2022/12/28 09:08:28;;;;;;;5.45;4.95;;;8.80;99.90;;;;;;4958200;28;20445;-71
2022/12/28 09:10:58;;;;;;;6.60;5.97;;;8.80;99.90;;;;;;4957329;28;20787;-72
2022/12/28 09:13:24;;;;;;;6.80;6.17;;;8.50;99.90;;;;;;4965533;28;20422;-71
2022/12/28 09:15:57;;;;;;;7.47;6.70;;;8.90;99.90;;;;;;4962971;28;20428;-71
2022/12/28 09:18:23;;;;;;;7.93;7.13;;;8.80;99.90;;;;;;4964299;28;20442;-71
2022/12/28 09:20:48;;;;;;;8.30;7.57;;;8.30;99.90;;;;;;4969331;28;20428;-71
2022/12/28 09:23:14;;;;;;;10.38;8.27;;;8.70;99.90;;;;;;4966007;28;20737;-72
2022/12/28 09:25:40;;;;;;;8.85;7.95;;;8.90;99.90;;;;;;4964752;28;20451;-72
2022/12/28 09:28:05;;;;;;;8.57;7.80;;;8.20;99.90;;;;;;4961454;28;20779;-72
2022/12/28 09:30:31;;;;;;;9.65;8.25;;;8.90;99.90;;;;;;4958472;28;21253;-72
2022/12/28 09:35:41;;;;;;;7.55;6.78;;;8.30;99.90;;;;;;4962889;28;20806;-70
2022/12/28 09:38:06;;;;;;;7.33;6.63;;;8.30;99.90;;;;;;4965653;28;20652;-73
2022/12/28 09:40:36;;;;;;;7.55;6.85;;;8.30;99.90;;;;;;4958316;28;20422;-71
2022/12/28 09:43:03;;;;;;;7.47;6.70;;;8.50;99.90;;;;;;4948102;28;20503;-71
2022/12/28 09:45:30;;;;;;;6.60;5.80;;;8.80;99.90;;;;;;4961679;28;20456;-74
2022/12/28 09:48:02;;;;;;;6.15;5.00;;;8.50;99.90;;;;;;4962982;28;20808;-71
2022/12/28 09:50:33;;;;;;;6.05;5.55;;;8.40;99.90;;;;;;4957220;28;20457;-73
2022/12/28 09:53:21;;;;;;;6.25;5.72;;;8.70;99.90;;;;;;4963158;28;20436;-71
2022/12/28 09:56:01;;;;;;;5.78;5.25;;;8.30;99.90;;;;;;4979659;28;20487;-72
2022/12/28 09:58:29;;;;;;;6.28;5.68;;;8.30;99.90;;;;;;4962967;28;20428;-73
2022/12/28 10:00:58;;;;;;;7.22;6.35;;;8.60;99.90;;;;;;4962395;28;20479;-72
2022/12/28 10:03:34;;;;;;;6.90;6.20;;;8.40;99.90;;;;;;4965526;28;20424;-71
2022/12/28 10:06:00;;;;;;;8.50;7.70;;;8.40;99.90;;;;;;4963538;28;20570;-72
2022/12/28 10:08:27;;;;;;;8.57;7.78;;;8.50;99.90;;;;;;4964162;28;20428;-72
2022/12/28 10:10:58;;;;;;;9.50;8.60;;;8.40;99.90;;;;;;4954075;28;20440;-72
2022/12/28 10:13:27;;;;;;;12.52;11.15;;;8.40;99.90;;;;;;4963548;28;21083;-73
2022/12/28 10:15:54;;;;;;;14.10;11.63;;;8.50;99.90;;;;;;4964242;28;20420;-74
2022/12/28 10:18:25;;;;;;;12.43;11.13;;;8.50;99.90;;;;;;4964762;28;20526;-73
2022/12/28 10:20:51;;;;;;;13.93;11.40;;;8.60;99.90;;;;;;4959746;28;20928;-73
2022/12/28 10:23:24;;;;;;;13.55;10.90;;;8.50;99.90;;;;;;4955222;28;20421;-73
2022/12/28 10:25:54;;;;;;;12.25;10.85;;;8.60;99.90;;;;;;4963888;28;20431;-73
2022/12/28 10:28:22;;;;;;;12.90;11.60;;;9.00;99.90;;;;;;4964125;28;20428;-72
2022/12/28 10:31:07;;;;;;;10.77;9.38;;;8.70;99.90;;;;;;4957930;28;20427;-74
2022/12/28 10:33:38;;;;;;;10.43;9.32;;;9.20;99.90;;;;;;4959315;28;20437;-72
2022/12/28 10:36:04;;;;;;;9.77;8.77;;;8.70;99.90;;;;;;4962691;28;20436;-71
2022/12/28 10:38:32;;;;;;;10.30;8.95;;;9.00;99.90;;;;;;4962600;28;20431;-72
2022/12/28 10:41:09;;;;;;;8.57;7.73;;;8.70;99.90;;;;;;4961897;28;20436;-71
2022/12/28 10:43:38;;;;;;;8.77;7.88;;;9.20;99.90;;;;;;4962942;28;20778;-72
2022/12/28 10:46:13;;;;;;;7.83;7.13;;;8.80;99.90;;;;;;4961679;28;20511;-72
2022/12/28 10:48:45;;;;;;;8.30;7.50;;;9.00;99.90;;;;;;4978460;28;20443;-71
2022/12/28 10:51:17;;;;;;;8.75;7.93;;;8.80;99.90;;;;;;4953181;28;20441;-71
2022/12/28 10:53:45;;;;;;;8.70;7.90;;;9.00;99.90;;;;;;4953712;28;20424;-72
2022/12/28 10:56:11;;;;;;;7.82;7.13;;;9.30;99.90;;;;;;4962245;28;20454;-73
2022/12/28 10:58:37;;;;;;;7.90;7.10;;;9.00;99.90;;;;;;4962687;28;20511;-71
2022/12/28 11:01:05;;;;;;;7.70;6.95;;;9.40;99.90;;;;;;4961620;28;20435;-71
2022/12/28 11:03:35;;;;;;;8.07;7.32;;;8.80;99.90;;;;;;4962913;28;20435;-72
2022/12/28 11:06:10;;;;;;;8.07;7.00;;;9.00;99.90;;;;;;4963366;28;20431;-72
2022/12/28 11:08:38;;;;;;;6.23;5.63;;;9.20;99.90;;;;;;4964666;28;20470;-71
2022/12/28 11:11:05;;;;;;;6.47;5.90;;;9.30;99.90;;;;;;4965820;28;20544;-72
2022/12/28 11:13:31;;;;;;;8.73;6.95;;;9.20;99.90;;;;;;4968730;28;20426;-71
2022/12/28 11:15:58;;;;;;;6.60;6.00;;;9.30;99.90;;;;;;4966459;28;20443;-73
2022/12/28 11:18:24;;;;;;;6.18;5.57;;;9.10;99.90;;;;;;4968519;28;20412;-72
2022/12/28 11:20:52;;;;;;;7.28;5.97;;;9.10;99.90;;;;;;4967605;28;20442;-73
2022/12/28 11:23:24;;;;;;;6.47;5.88;;;8.70;99.90;;;;;;4966336;28;20428;-73
2022/12/28 11:25:51;;;;;;;6.55;5.95;;;9.40;99.90;;;;;;4966424;28;20434;-71
2022/12/28 11:28:21;;;;;;;6.20;5.70;;;9.30;99.90;;;;;;4965364;28;20457;-72
2022/12/28 11:30:48;;;;;;;7.55;6.75;;;9.30;99.90;;;;;;4960934;28;20519;-71
2022/12/28 11:33:22;;;;;;;6.30;5.70;;;8.90;99.90;;;;;;4968095;28;20503;-72
2022/12/28 11:35:51;;;;;;;6.22;5.38;;;9.00;99.90;;;;;;4958614;28;20771;-72
2022/12/28 11:38:39;;;;;;;6.40;5.72;;;8.80;99.90;;;;;;4968593;28;20412;-74
2022/12/28 11:41:05;;;;;;;5.40;4.90;;;8.80;99.90;;;;;;4965669;28;20436;-73
2022/12/28 11:43:38;;;;;;;5.85;5.13;;;8.90;99.90;;;;;;4966112;28;20435;-73
2022/12/28 11:46:04;;;;;;;6.25;4.38;;;9.40;99.90;;;;;;4953948;28;20424;-71
2022/12/28 11:48:42;;;;;;;5.32;4.82;;;9.10;99.90;;;;;;4948410;28;20768;-72
2022/12/28 11:51:29;;;;;;;4.90;4.40;;;9.00;99.90;;;;;;4964462;28;20484;-72
2022/12/28 11:54:00;;;;;;;4.70;4.30;;;9.20;99.90;;;;;;4963769;28;20787;-72
2022/12/28 11:56:44;;;;;;;4.85;4.43;;;8.80;99.90;;;;;;4956280;28;20431;-74
2022/12/28 11:59:29;;;;;;;5.03;4.53;;;9.10;99.90;;;;;;4964820;28;20431;-73
2022/12/28 12:02:18;;;;;;;5.63;5.13;;;9.30;99.90;;;;;;4960095;28;20439;-74
2022/12/28 12:04:45;;;;;;;7.65;5.10;;;8.80;99.90;;;;;;4966214;28;20416;-73
2022/12/28 12:07:22;;;;;;;5.65;5.15;;;9.00;99.90;;;;;;4964211;28;20475;-73
2022/12/28 12:10:14;;;;;;;5.33;4.83;;;8.90;99.90;;;;;;4967389;28;20863;-72
2022/12/28 12:12:51;;;;;;;5.85;5.10;;;9.30;99.90;;;;;;4967082;28;20818;-73
2022/12/28 12:15:36;;;;;;;5.60;4.90;;;8.90;99.90;;;;;;4966328;28;20476;-72
2022/12/28 12:18:04;;;;;;;7.43;6.72;;;8.80;99.90;;;;;;4966769;28;20424;-74
2022/12/28 12:20:49;;;;;;;5.28;4.78;;;8.80;99.90;;;;;;4964381;28;20424;-72
2022/12/28 12:23:33;;;;;;;5.43;4.93;;;9.20;99.90;;;;;;4967061;28;20566;-72
2022/12/28 12:26:08;;;;;;;5.85;4.70;;;8.90;99.90;;;;;;4965970;28;20408;-74
2022/12/28 12:28:46;;;;;;;5.45;4.88;;;8.90;99.90;;;;;;4966005;28;20455;-72
2022/12/28 12:31:18;;;;;;;5.88;4.97;;;8.90;99.90;;;;;;4964668;28;20490;-72
2022/12/28 12:33:47;;;;;;;5.40;4.47;;;9.20;99.90;;;;;;4966314;28;20431;-72
2022/12/28 12:36:51;;;;;;;5.47;4.90;;;9.20;99.90;;;;;;4958509;28;20473;-73
2022/12/28 12:39:47;;;;;;;4.93;4.50;;;8.80;99.90;;;;;;4950968;28;20440;-72
2022/12/28 12:42:25;;;;;;;4.30;3.90;;;9.00;99.90;;;;;;4942833;28;20475;-72
2022/12/28 12:45:29;;;;;;;5.32;4.82;;;9.20;99.90;;;;;;4959860;28;20503;-72
2022/12/28 12:48:07;;;;;;;3.80;3.40;;;9.00;99.90;;;;;;4966422;28;20420;-72
2022/12/28 12:50:49;;;;;;;6.03;3.50;;;9.00;99.90;;;;;;4955375;28;20428;-72
2022/12/28 12:53:33;;;;;;;3.95;3.55;;;9.20;99.90;;;;;;4960979;28;20444;-72
2022/12/28 12:56:25;;;;;;;5.35;3.13;;;9.20;99.90;;;;;;4964477;28;20511;-72
2022/12/28 12:59:20;;;;;;;3.47;2.70;;;9.00;99.90;;;;;;4953067;28;20477;-73
2022/12/28 13:02:05;;;;;;;3.72;2.47;;;8.90;99.90;;;;;;4947742;28;20475;-74
2022/12/28 13:04:34;;;;;;;3.88;3.00;;;9.20;99.90;;;;;;4954962;28;20436;-71
2022/12/28 13:07:03;;;;;;;4.45;2.85;;;9.00;99.90;;;;;;4964261;28;20435;-73
2022/12/28 13:09:33;;;;;;;3.45;2.92;;;8.90;99.90;;;;;;4962153;28;21449;-72
2022/12/28 13:12:00;;;;;;;3.33;2.67;;;9.10;99.90;;;;;;4961192;28;20462;-73
2022/12/28 13:14:27;;;;;;;4.93;3.50;;;9.20;99.90;;;;;;4964288;28;20427;-73
2022/12/28 13:16:55;;;;;;;3.20;2.70;;;9.20;99.90;;;;;;4966537;28;20811;-72
2022/12/28 13:19:24;;;;;;;2.55;1.95;;;9.20;99.90;;;;;;4967138;28;20443;-72
2022/12/28 13:24:34;;;;;;;4.75;2.70;;;8.90;99.90;;;;;;4491037;23;21021;-80
2022/12/28 13:27:00;;;;;;;4.95;2.10;;;8.90;99.90;;;;;;4968769;28;20826;-82
2022/12/28 13:29:50;;;;;;;4.07;2.75;;;9.20;99.90;;;;;;4967945;28;20431;-81
2022/12/28 13:32:28;;;;;;;3.80;1.90;;;8.90;99.90;;;;;;4958774;28;20447;-81
2022/12/28 13:34:54;;;;;;;2.88;1.88;;;9.10;99.90;;;;;;4969301;28;20899;-82
2022/12/28 13:37:20;;;;;;;5.67;2.27;;;8.90;99.90;;;;;;4967567;28;20471;-81
2022/12/28 13:39:46;;;;;;;3.08;1.98;;;8.90;99.90;;;;;;4966798;28;20420;-81
2022/12/28 13:42:20;;;;;;;4.30;2.33;;;8.90;99.90;;;;;;4968034;28;20416;-82